Time;durP1;ratioP1;P1;durP2;ratioP2;P2;SDS_P1;SDS_P2;PMS_P1;PMS_P2;Temp;Humidity;BMP_temperature;BMP_pressure;BME280_temperature;BME280_humidity;BME280_pressure;Samples;Min_cycle;Max_cycle;Signal;HPM_P1;HPM_P2
2022/11/07 00:02:39;;;;;;;90.28;47.90;;;;;;;10.49;99.96;97979.38;10378444;28;20060;-57
2022/11/07 00:07:38;;;;;;;82.13;46.38;;;;;;;10.45;100.00;97979.34;10378591;28;20048;-57
2022/11/07 00:12:38;;;;;;;79.10;43.95;;;;;;;10.46;99.71;97979.38;10378070;28;20064;-57
2022/11/07 00:17:37;;;;;;;85.45;46.95;;;;;;;10.41;99.83;97983.69;10378709;28;20059;-57
2022/11/07 00:22:36;;;;;;;88.32;47.17;;;;;;;10.38;99.40;97986.28;10378203;28;20033;-57
2022/11/07 00:27:35;;;;;;;92.40;46.00;;;;;;;10.44;99.13;97986.28;10377138;28;20032;-57
2022/11/07 00:32:34;;;;;;;88.47;46.17;;;;;;;10.48;99.58;97987.19;10377745;28;20064;-57
2022/11/07 00:37:33;;;;;;;94.63;45.80;;;;;;;10.43;99.83;97987.16;10376971;28;20021;-56
2022/11/07 00:42:31;;;;;;;96.57;46.75;;;;;;;10.49;100.00;97984.56;10377065;28;20041;-57
2022/11/07 00:47:30;;;;;;;98.60;45.70;;;;;;;10.52;99.72;97982.00;10376408;28;20104;-57
2022/11/07 00:52:30;;;;;;;105.82;49.10;;;;;;;10.42;100.00;97988.00;10376351;28;20087;-57
2022/11/07 00:57:29;;;;;;;110.45;47.72;;;;;;;10.29;100.00;97984.50;10376194;28;20079;-57
2022/11/07 01:02:28;;;;;;;82.00;42.95;;;;;;;10.23;100.00;97986.22;10375916;28;20055;-57
2022/11/07 01:07:27;;;;;;;81.15;42.30;;;;;;;10.28;100.00;97980.16;10376042;28;20021;-57
2022/11/07 01:12:26;;;;;;;66.85;39.25;;;;;;;10.35;100.00;97978.47;10375768;28;20025;-57
2022/11/07 01:17:25;;;;;;;71.38;38.30;;;;;;;10.39;99.84;97978.47;10374831;28;20076;-57
2022/11/07 01:22:24;;;;;;;61.03;35.85;;;;;;;10.41;100.00;97973.31;10375376;28;20120;-57
2022/11/07 01:27:23;;;;;;;90.60;52.70;;;;;;;10.39;99.54;97972.44;10374987;28;20035;-57
2022/11/07 01:32:22;;;;;;;75.40;43.47;;;;;;;10.34;99.60;97974.16;10374614;28;20051;-57
2022/11/07 01:37:21;;;;;;;61.63;36.20;;;;;;;10.35;99.87;97970.69;10374683;28;20089;-57
2022/11/07 01:42:20;;;;;;;61.85;36.42;;;;;;;10.32;99.84;97968.09;10374421;28;20115;-57
2022/11/07 01:47:22;;;;;;;59.17;34.30;;;;;;;10.43;99.60;97966.41;10374537;28;20456;-56
2022/11/07 01:52:28;;;;;;;57.42;34.70;;;;;;;10.43;99.40;97973.31;10373574;28;20540;-57
2022/11/07 01:57:35;;;;;;;60.00;34.03;;;;;;;10.33;98.88;97941.28;10373554;28;20531;-57
2022/11/07 02:02:35;;;;;;;75.10;38.97;;;;;;;10.37;98.33;97948.22;10373626;28;20512;-57
2022/11/07 02:07:36;;;;;;;73.45;38.95;;;;;;;10.44;98.87;97933.53;10373660;28;20507;-56
2022/11/07 02:12:35;;;;;;;72.57;38.15;;;;;;;10.49;98.35;97943.06;10374471;28;20441;-56
2022/11/07 02:17:34;;;;;;;73.57;38.55;;;;;;;10.52;98.68;97948.28;10371868;28;20080;-57
2022/11/07 02:22:42;;;;;;;95.03;43.33;;;;;;;10.38;98.89;97944.78;10373009;28;20067;-57
2022/11/07 02:27:42;;;;;;;96.18;42.50;;;;;;;10.15;99.54;97949.88;10373036;28;20515;-57
2022/11/07 02:32:42;;;;;;;85.57;40.72;;;;;;;10.04;100.00;97951.56;10372778;28;20484;-57
2022/11/07 02:37:41;;;;;;;70.55;36.15;;;;;;;10.08;99.65;97956.78;10373303;28;20321;-57
2022/11/07 02:42:43;;;;;;;71.55;36.95;;;;;;;10.09;100.00;97952.44;10372809;28;20068;-57
2022/11/07 02:47:42;;;;;;;68.20;36.35;;;;;;;10.27;99.64;97972.41;10372633;28;21056;-57
2022/11/07 02:52:42;;;;;;;65.32;35.05;;;;;;;10.35;100.00;97981.06;10372822;28;20040;-57
2022/11/07 02:57:41;;;;;;;61.63;35.63;;;;;;;10.42;99.88;97982.81;10372411;28;20081;-57
2022/11/07 03:02:45;;;;;;;61.83;37.08;;;;;;;10.48;100.00;97988.03;10372494;28;20315;-57
2022/11/07 03:07:47;;;;;;;71.88;37.47;;;;;;;10.51;98.82;97992.38;10371606;28;20069;-56
2022/11/07 03:12:46;;;;;;;65.68;37.60;;;;;;;10.52;99.32;98000.16;10378909;28;20061;-56
2022/11/07 03:17:44;;;;;;;68.50;37.75;;;;;;;10.58;99.14;98002.75;10380852;28;20395;-56
2022/11/07 03:22:45;;;;;;;73.90;37.33;;;;;;;10.60;99.24;97998.44;10380004;28;20029;-56
2022/11/07 03:27:48;;;;;;;71.68;37.47;;;;;;;10.67;99.03;97994.13;10379914;28;20047;-56
2022/11/07 03:32:51;;;;;;;78.55;38.00;;;;;;;10.72;98.91;98001.94;10379260;28;20076;-56
2022/11/07 03:37:50;;;;;;;67.05;35.30;;;;;;;10.75;99.05;98002.81;10378693;28;20072;-56
2022/11/07 03:42:49;;;;;;;71.57;39.00;;;;;;;10.79;98.68;97994.16;10379303;28;20450;-56
2022/11/07 03:47:48;;;;;;;68.32;36.90;;;;;;;10.79;98.86;97996.75;10378906;28;20112;-56
2022/11/07 03:52:48;;;;;;;67.00;37.00;;;;;;;10.74;98.71;98002.81;10378495;28;20808;-56
2022/11/07 03:57:47;;;;;;;68.28;36.13;;;;;;;10.72;98.38;98002.78;10378534;28;20073;-56
2022/11/07 04:02:46;;;;;;;72.95;37.53;;;;;;;10.73;98.49;98001.94;10378661;28;20041;-56
2022/11/07 04:07:45;;;;;;;73.75;37.33;;;;;;;10.75;98.54;98009.72;10378289;28;20037;-56
2022/11/07 04:18:02;;;;;;;80.82;39.83;;;;;;;10.77;97.80;98020.97;10378100;28;20497;-56
2022/11/07 04:23:01;;;;;;;83.45;38.83;;;;;;;10.75;98.10;98020.09;10376629;28;20076;-56
2022/11/07 04:28:00;;;;;;;90.82;42.47;;;;;;;10.51;98.29;98019.16;10377678;28;20032;-56
2022/11/07 04:33:01;;;;;;;89.72;40.38;;;;;;;10.33;99.57;98027.78;10377500;28;20112;-56
2022/11/07 04:38:00;;;;;;;94.22;40.28;;;;;;;10.17;100.00;98039.78;10376576;28;20080;-56
2022/11/07 04:42:59;;;;;;;94.28;42.47;;;;;;;10.23;100.00;98032.91;10376645;28;20072;-56
2022/11/07 04:47:58;;;;;;;99.45;43.50;;;;;;;10.34;99.84;98041.59;10376623;28;20060;-56
2022/11/07 04:52:57;;;;;;;95.45;44.60;;;;;;;10.45;99.47;98046.81;10376960;28;20040;-56
2022/11/07 04:57:56;;;;;;;101.72;44.72;;;;;;;10.38;100.00;98032.97;10376451;28;20031;-56
2022/11/07 05:02:55;;;;;;;;;;;;;;;10.42;99.80;98037.28;10376872;28;20056;-56
2022/11/07 05:07:54;;;;;;;79.90;41.58;;;;;;;10.47;100.00;98040.81;10373238;28;19995;-57
2022/11/07 05:12:53;;;;;;;80.47;39.92;;;;;;;10.53;99.85;98052.91;10374264;28;20017;-57
2022/11/07 05:17:52;;;;;;;82.82;42.17;;;;;;;10.53;99.82;98048.59;10373697;28;20068;-57
2022/11/07 05:28:11;;;;;;;91.13;44.17;;;;;;;10.51;99.66;98058.09;10373818;28;20442;-57
2022/11/07 05:33:12;;;;;;;103.63;52.78;;;;;;;10.59;99.33;98064.19;10371559;28;20073;-57
2022/11/07 05:38:11;;;;;;;101.00;50.55;;;;;;;10.56;99.59;98073.69;10373157;28;20064;-57
2022/11/07 05:43:12;;;;;;;102.88;49.25;;;;;;;10.53;100.00;98077.13;10373036;28;20514;-57
2022/11/07 05:48:12;;;;;;;101.95;49.30;;;;;;;10.57;99.67;98091.00;10371476;28;20076;-57
2022/11/07 05:53:11;;;;;;;100.68;48.10;;;;;;;10.61;99.84;98093.63;10372180;28;20417;-57
2022/11/07 05:58:11;;;;;;;106.57;49.55;;;;;;;10.69;99.51;98096.25;10371228;28;20485;-56
2022/11/07 06:03:10;;;;;;;95.30;44.38;;;;;;;10.82;99.85;98099.72;10369782;28;20061;-57
2022/11/07 06:08:10;;;;;;;;;;;;;;;10.89;99.68;98104.13;10368775;28;20071;-57
2022/11/07 06:13:15;;;;;;;82.07;43.95;;;;;;;10.96;99.47;98108.50;10365965;28;19967;-55
2022/11/07 06:18:17;;;;;;;77.40;42.33;;;;;;;10.99;99.17;98113.69;10371294;28;20068;-54
2022/11/07 06:23:16;;;;;;;76.50;41.83;;;;;;;11.02;99.03;98115.44;10371244;28;20071;-54
2022/11/07 06:28:15;;;;;;;;;;;;;;;11.09;98.29;98116.31;10363577;28;20064;-55
2022/11/07 06:33:16;;;;;;;77.65;41.17;;;;;;;11.17;97.36;98124.97;10328125;28;19909;-57
2022/11/07 06:38:15;;;;;;;77.40;43.72;;;;;;;11.14;97.49;98130.16;10347693;28;20056;-57
2022/11/07 06:43:17;;;;;;;69.10;41.17;;;;;;;11.11;97.28;98132.78;10369100;28;20056;-55
2022/11/07 06:48:16;;;;;;;69.57;42.90;;;;;;;11.07;97.17;98138.81;10360631;28;20456;-56
2022/11/07 06:53:14;;;;;;;76.75;44.72;;;;;;;10.96;97.42;98137.06;10347731;28;20496;-57
2022/11/07 06:58:13;;;;;;;87.07;48.67;;;;;;;10.99;97.84;98137.06;10372043;28;20033;-57
2022/11/07 07:03:12;;;;;;;82.65;46.92;;;;;;;11.08;98.19;98140.53;10371845;28;20032;-57
2022/11/07 07:08:12;;;;;;;95.80;51.17;;;;;;;11.14;97.75;98141.41;10372563;28;20031;-57
2022/11/07 07:13:12;;;;;;;75.82;47.72;;;;;;;11.16;97.66;98141.44;10371830;28;20068;-57
2022/11/07 07:18:11;;;;;;;90.80;53.15;;;;;;;11.16;97.52;98144.91;10371607;28;20488;-57
2022/11/07 07:23:10;;;;;;;82.60;51.45;;;;;;;11.23;97.19;98145.78;10371490;28;20028;-57
2022/11/07 07:28:09;;;;;;;89.35;51.83;;;;;;;11.30;97.58;98162.25;10371437;28;20047;-57
2022/11/07 07:33:08;;;;;;;86.00;49.55;;;;;;;11.31;97.69;98163.97;10371743;28;20037;-57
2022/11/07 07:38:07;;;;;;;88.28;51.42;;;;;;;11.32;97.39;98160.53;10370724;28;20063;-55
2022/11/07 07:43:06;;;;;;;89.22;51.33;;;;;;;11.33;97.32;98168.31;10369694;28;20024;-58
2022/11/07 07:48:05;;;;;;;94.45;55.80;;;;;;;11.40;97.13;98175.25;10344277;28;20079;-56
2022/11/07 07:53:04;;;;;;;93.07;53.83;;;;;;;11.41;96.95;98170.97;10330115;28;20064;-56
2022/11/07 07:58:03;;;;;;;96.93;55.00;;;;;;;11.37;96.76;98177.88;10371536;28;20033;-56
2022/11/07 08:03:10;;;;;;;83.72;47.92;;;;;;;11.35;96.70;98171.78;10377610;28;20492;-56
2022/11/07 08:08:09;;;;;;;86.18;49.85;;;;;;;11.33;96.92;98177.84;10366062;28;20132;-56
2022/11/07 08:13:08;;;;;;;83.20;48.67;;;;;;;11.34;97.29;98182.16;10343152;28;20026;-56
2022/11/07 08:18:07;;;;;;;80.32;48.53;;;;;;;11.38;97.03;98176.13;10345737;28;20092;-57
2022/11/07 08:23:08;;;;;;;88.85;50.38;;;;;;;11.55;97.40;98179.66;10376442;28;20581;-55
2022/11/07 08:28:07;;;;;;;86.57;53.80;;;;;;;11.73;97.00;98173.59;10349852;28;20424;-55
2022/11/07 08:33:08;;;;;;;87.25;52.45;;;;;;;11.92;96.79;98181.41;10356952;28;20648;-56
2022/11/07 08:38:07;;;;;;;85.75;52.97;;;;;;;12.03;95.88;98179.69;10350560;28;20064;-56
2022/11/07 08:43:06;;;;;;;86.60;53.35;;;;;;;12.14;95.29;98182.28;10355413;28;20067;-55
2022/11/07 08:48:05;;;;;;;85.53;52.00;;;;;;;12.28;94.69;98181.44;10373485;28;20049;-56
2022/11/07 08:53:04;;;;;;;78.43;51.97;;;;;;;12.40;94.34;98187.50;10378018;28;20095;-56
2022/11/07 08:58:05;;;;;;;78.50;49.35;;;;;;;12.47;93.06;98181.41;10375609;28;20052;-56
2022/11/07 09:03:07;;;;;;;73.80;46.55;;;;;;;12.48;92.63;98180.53;10375626;28;20107;-56
2022/11/07 09:08:06;;;;;;;69.70;45.53;;;;;;;12.58;92.43;98177.06;10373266;28;20083;-56
2022/11/07 09:13:05;;;;;;;51.85;35.90;;;;;;;12.66;90.24;98187.44;10366935;28;20056;-56
2022/11/07 09:18:05;;;;;;;58.47;40.35;;;;;;;12.60;89.96;98184.84;10372295;28;20043;-57
2022/11/07 09:23:04;;;;;;;50.35;36.33;;;;;;;12.72;89.12;98180.50;10366069;28;20072;-57
2022/11/07 09:28:04;;;;;;;49.90;35.50;;;;;;;12.69;88.84;98180.47;10353273;28;20061;-56
2022/11/07 09:33:03;;;;;;;51.45;37.33;;;;;;;12.77;88.22;98179.63;10339298;28;20060;-57
2022/11/07 09:38:02;;;;;;;50.88;37.08;;;;;;;12.87;88.40;98179.56;10349863;28;20049;-57
2022/11/07 09:43:16;;;;;;;42.90;32.00;;;;;;;12.83;87.89;98176.97;10332928;28;20039;-57
2022/11/07 09:48:20;;;;;;;45.17;34.15;;;;;;;13.01;88.14;98169.09;10352961;28;20663;-57
2022/11/07 09:53:34;;;;;;;47.20;33.20;;;;;;;13.06;87.27;98172.53;10373101;28;20056;-57
2022/11/07 09:58:39;;;;;;;39.92;30.42;;;;;;;13.15;87.27;98159.47;10367886;28;20075;-56
2022/11/07 10:03:39;;;;;;;41.80;31.48;;;;;;;13.29;87.12;98150.72;10372983;28;20052;-56
2022/11/07 10:08:48;;;;;;;42.67;31.15;;;;;;;13.48;86.33;98152.34;10372129;28;20056;-57
2022/11/07 10:14:08;;;;;;;43.90;32.00;;;;;;;13.59;84.69;98144.50;10339419;28;20049;-57
2022/11/07 10:19:18;;;;;;;48.33;32.75;;;;;;;13.73;84.36;98142.66;10331229;28;20497;-57
2022/11/07 10:24:40;;;;;;;44.15;31.65;;;;;;;13.87;83.80;98136.47;10354390;28;20499;-57
2022/11/07 10:29:46;;;;;;;46.95;31.58;;;;;;;13.91;82.85;98131.22;10348661;28;20052;-57
2022/11/07 10:35:01;;;;;;;45.72;33.47;;;;;;;13.95;82.58;98137.25;10361226;28;20072;-57
2022/11/07 10:40:00;;;;;;;44.67;31.80;;;;;;;14.19;82.96;98133.56;10373761;28;20572;-57
2022/11/07 10:44:59;;;;;;;;;;;;;;;14.68;81.97;98124.34;10375171;28;20471;-57
2022/11/07 10:50:15;;;;;;;45.10;31.38;;;;;;;14.88;79.20;98119.78;10373957;28;20037;-57
2022/11/07 10:55:15;;;;;;;42.10;31.35;;;;;;;14.93;79.88;98110.13;10371940;28;20736;-56
2022/11/07 11:00:38;;;;;;;37.90;28.23;;;;;;;15.10;78.14;98103.81;10373303;28;20077;-57
2022/11/07 11:05:42;;;;;;;39.65;28.67;;;;;;;15.05;76.56;98106.50;10373115;28;20457;-55
2022/11/07 11:10:42;;;;;;;42.78;29.55;;;;;;;14.85;75.98;98098.94;10357420;28;20077;-56
2022/11/07 11:15:44;;;;;;;43.15;30.45;;;;;;;14.62;76.16;98091.34;10333047;28;20061;-57
2022/11/07 11:21:01;;;;;;;44.08;29.95;;;;;;;14.56;76.50;98087.03;10333708;28;20069;-56
2022/11/07 11:26:05;;;;;;;48.72;32.42;;;;;;;14.46;77.35;98081.97;10332536;28;20068;-57
2022/11/07 11:31:12;;;;;;;47.20;32.53;;;;;;;14.43;77.95;98076.75;10367429;28;20060;-57
2022/11/07 11:36:18;;;;;;;46.35;33.05;;;;;;;14.51;77.96;98061.88;10380354;28;20087;-56
2022/11/07 11:41:41;;;;;;;41.90;30.42;;;;;;;14.31;77.74;98062.97;10381400;28;20056;-57
2022/11/07 11:47:17;;;;;;;43.40;29.70;;;;;;;14.28;77.62;98063.00;10381419;28;20064;-56
2022/11/07 11:52:19;;;;;;;38.88;28.25;;;;;;;14.35;76.99;98063.78;10350179;28;20088;-57
2022/11/07 11:57:49;;;;;;;40.03;27.90;;;;;;;14.32;77.54;98053.41;10379506;28;20056;-56
2022/11/07 12:03:00;;;;;;;42.03;29.95;;;;;;;14.35;77.71;98046.38;10375115;28;20076;-56
2022/11/07 12:08:10;;;;;;;40.42;28.10;;;;;;;14.40;77.54;98041.09;10375124;28;20064;-56
2022/11/07 12:13:21;;;;;;;38.80;26.00;;;;;;;14.50;77.12;98037.50;10379271;28;20071;-55
2022/11/07 12:18:48;;;;;;;40.33;26.75;;;;;;;14.68;77.08;98033.78;10378134;28;20072;-56
2022/11/07 12:24:01;;;;;;;43.90;29.67;;;;;;;14.80;75.95;98038.91;10376062;28;20072;-56
2022/11/07 12:29:22;;;;;;;44.88;28.40;;;;;;;14.97;75.13;98029.97;10374832;28;20091;-56
2022/11/07 12:34:27;;;;;;;39.03;27.80;;;;;;;14.92;74.46;98032.66;10373621;28;20538;-57
2022/11/07 12:39:26;;;;;;;39.42;27.50;;;;;;;15.14;73.98;98032.34;10372563;28;20112;-57
2022/11/07 12:44:55;;;;;;;39.38;26.92;;;;;;;15.49;73.44;98026.56;10372813;28;20068;-57
2022/11/07 12:50:21;;;;;;;36.70;26.77;;;;;;;15.77;71.87;98026.94;10347921;28;20103;-57
2022/11/07 12:55:31;;;;;;;36.10;26.27;;;;;;;15.83;71.38;98032.13;10373680;28;20519;-57
2022/11/07 13:00:31;;;;;;;36.00;25.80;;;;;;;15.57;71.35;98026.41;10374926;28;20064;-56
2022/11/07 13:05:42;;;;;;;35.78;26.83;;;;;;;15.59;71.60;98022.88;10374006;28;20068;-57
2022/11/07 13:11:22;;;;;;;38.75;25.55;;;;;;;15.42;70.95;98025.78;10374141;28;20060;-57
2022/11/07 13:16:25;;;;;;;37.30;26.67;;;;;;;15.39;71.17;98020.63;10335741;28;20346;-56
2022/11/07 13:21:24;;;;;;;36.17;26.02;;;;;;;15.37;70.29;98016.28;10373336;28;20079;-57
2022/11/07 13:26:27;;;;;;;;;;;;;;;15.52;69.88;98023.88;10374513;28;20035;-56
2022/11/07 13:31:38;;;;;;;42.60;28.90;;;;;;;15.53;70.31;98024.72;10374710;28;19952;-56
2022/11/07 13:36:38;;;;;;;35.03;24.67;;;;;;;15.56;70.13;98028.19;10374703;28;20064;-56
2022/11/07 13:41:37;;;;;;;34.42;23.70;;;;;;;15.61;68.36;98036.81;10374218;28;20079;-56
2022/11/07 13:46:43;;;;;;;33.95;24.70;;;;;;;15.41;68.60;98036.25;10373890;28;20060;-57
2022/11/07 13:51:50;;;;;;;34.25;24.38;;;;;;;15.34;69.13;98034.63;10373876;28;20091;-57
2022/11/07 13:57:00;;;;;;;34.95;23.70;;;;;;;15.32;69.37;98028.56;10372457;28;20072;-58
2022/11/07 14:01:59;;;;;;;36.20;23.83;;;;;;;15.27;67.77;98040.84;10373546;28;20570;-56
2022/11/07 14:07:00;;;;;;;;;;;;;;;15.18;68.49;98037.50;10375852;28;20492;-56
2022/11/07 14:11:59;;;;;;;38.67;25.60;;;;;;;15.11;67.49;98030.63;10374384;28;19951;-57
2022/11/07 14:16:58;;;;;;;;;;;;;;;14.97;65.80;98027.34;10365548;28;20064;-57
2022/11/07 14:21:57;;;;;;;38.05;26.55;;;;;;;14.94;66.20;98027.38;10330784;28;19983;-57
2022/11/07 14:26:58;;;;;;;36.60;24.92;;;;;;;14.87;65.91;98028.34;10369235;28;20071;-57
2022/11/07 14:32:00;;;;;;;37.85;25.20;;;;;;;14.53;67.32;98029.63;10345043;28;20142;-57
2022/11/07 14:37:04;;;;;;;47.35;29.30;;;;;;;14.33;71.35;98044.66;10343983;28;20056;-57
2022/11/07 14:42:03;;;;;;;51.10;32.60;;;;;;;14.08;74.26;98038.88;10369724;28;20061;-57
2022/11/07 14:47:04;;;;;;;50.67;32.83;;;;;;;13.92;74.98;98044.22;10343179;28;20096;-58
2022/11/07 14:52:04;;;;;;;47.63;32.30;;;;;;;13.84;76.01;98037.34;10329699;28;20506;-57
2022/11/07 14:57:05;;;;;;;40.05;29.52;;;;;;;13.80;76.89;98048.69;10332777;28;20061;-57
2022/11/07 15:02:29;;;;;;;44.63;29.77;;;;;;;13.66;78.00;98046.22;10343731;28;20073;-57
2022/11/07 15:07:33;;;;;;;86.78;52.90;;;;;;;13.64;78.36;98053.19;10377112;28;20079;-57
2022/11/07 15:12:57;;;;;;;53.83;38.42;;;;;;;13.54;79.44;98050.66;10342296;28;20076;-57
2022/11/07 15:17:59;;;;;;;45.08;29.63;;;;;;;13.50;80.11;98059.34;10339678;28;20077;-57
2022/11/07 15:23:00;;;;;;;46.70;29.83;;;;;;;13.40;80.96;98049.88;10339271;28;20073;-57
2022/11/07 15:28:21;;;;;;;46.67;33.90;;;;;;;13.44;81.25;98068.94;10340354;28;20068;-57
2022/11/07 15:33:22;;;;;;;46.15;34.67;;;;;;;13.35;82.07;98052.50;10340384;28;20056;-57
2022/11/07 15:38:26;;;;;;;65.53;44.80;;;;;;;13.31;82.28;98062.97;10375655;28;20076;-57
2022/11/07 15:43:25;;;;;;;44.60;30.65;;;;;;;13.31;82.51;98068.19;10380812;28;20064;-57
2022/11/07 15:48:32;;;;;;;40.33;27.98;;;;;;;13.27;82.56;98069.06;10380868;28;20061;-57
2022/11/07 15:53:31;;;;;;;52.70;36.53;;;;;;;13.16;83.44;98074.34;10380141;28;20068;-57
2022/11/07 15:58:30;;;;;;;45.75;31.73;;;;;;;13.16;83.41;98082.16;10380211;28;20028;-55
2022/11/07 16:03:29;;;;;;;61.15;48.63;;;;;;;13.19;83.01;98076.94;10379912;28;20063;-58
2022/11/07 16:08:29;;;;;;;44.83;30.15;;;;;;;13.13;83.37;98077.84;10377846;28;20023;-56
2022/11/07 16:13:28;;;;;;;47.88;31.65;;;;;;;13.22;83.01;98073.47;10379925;28;20067;-57
2022/11/07 16:18:33;;;;;;;63.25;44.08;;;;;;;13.29;82.57;98075.16;10378454;28;20035;-56
2022/11/07 16:23:32;;;;;;;56.70;39.05;;;;;;;13.44;82.21;98080.22;10378933;28;20491;-56
2022/11/07 16:28:33;;;;;;;60.17;39.95;;;;;;;13.47;82.42;98088.06;10378566;28;20407;-57
2022/11/07 16:33:32;;;;;;;58.45;40.95;;;;;;;13.28;83.35;98102.06;10378233;28;20060;-57
2022/11/07 16:38:32;;;;;;;;;;;;;;;13.30;83.24;98100.31;10375500;28;20496;-56
2022/11/07 16:43:33;;;;;;;57.40;41.53;;;;;;;13.35;83.15;98093.34;10372888;28;19963;-56
2022/11/07 16:48:36;;;;;;;59.38;43.92;;;;;;;13.44;82.97;98103.69;10373013;28;20084;-56
2022/11/07 16:53:35;;;;;;;66.68;44.05;;;;;;;13.46;83.00;98104.56;10374539;28;20356;-56
2022/11/07 16:58:37;;;;;;;62.53;46.05;;;;;;;13.46;82.83;98109.78;10374436;28;20043;-57
2022/11/07 17:03:36;;;;;;;68.70;46.75;;;;;;;13.42;83.02;98102.88;10375535;28;20064;-57
2022/11/07 17:08:38;;;;;;;65.82;45.53;;;;;;;13.46;82.87;98107.16;10375381;28;20075;-57
2022/11/07 17:13:37;;;;;;;60.33;44.10;;;;;;;13.42;82.74;98109.81;10375090;28;20532;-57
2022/11/07 17:18:36;;;;;;;69.45;45.13;;;;;;;13.34;82.84;98102.03;10375234;28;20045;-57
2022/11/07 17:23:36;;;;;;;58.47;42.90;;;;;;;13.33;82.76;98095.09;10374113;28;20154;-56
2022/11/07 17:28:35;;;;;;;61.30;42.10;;;;;;;13.31;82.68;98081.22;10370966;28;20091;-57
2022/11/07 17:33:34;;;;;;;;;;;;;;;13.32;82.85;98082.94;10373510;28;20060;-57
2022/11/07 17:38:32;;;;;;;56.78;39.95;;;;;;;13.29;82.77;98094.25;10337602;28;20227;-57
2022/11/07 17:43:31;;;;;;;62.45;40.13;;;;;;;13.25;82.55;98081.25;10357388;28;20424;-57
2022/11/07 17:48:30;;;;;;;59.17;41.47;;;;;;;13.23;82.71;98083.00;10370226;28;20052;-57
2022/11/07 17:53:31;;;;;;;55.60;38.85;;;;;;;13.21;83.04;98087.34;10371803;28;20124;-57
2022/11/07 17:58:30;;;;;;;56.97;38.70;;;;;;;13.17;82.96;98078.69;10368250;28;20514;-56
2022/11/07 18:03:28;;;;;;;55.15;38.75;;;;;;;13.12;82.97;98070.91;10367558;28;20049;-56
2022/11/07 18:08:27;;;;;;;55.63;38.92;;;;;;;13.07;82.90;98066.59;10369135;28;20043;-57
2022/11/07 18:13:27;;;;;;;61.35;39.10;;;;;;;13.00;82.89;98070.09;10368178;28;20029;-58
2022/11/07 18:18:26;;;;;;;;;;;;;;;12.89;83.31;98070.19;10366041;28;20123;-57
2022/11/07 18:23:25;;;;;;;61.00;43.35;;;;;;;12.76;83.74;98064.16;10368492;28;19974;-57
2022/11/07 18:28:23;;;;;;;;;;;;;;;12.63;84.12;98060.75;10372187;28;20063;-56
2022/11/07 18:33:22;;;;;;;61.33;41.95;;;;;;;12.55;84.39;98059.03;10370938;28;19943;-57
2022/11/07 18:38:21;;;;;;;58.35;41.35;;;;;;;12.48;84.62;98048.63;10370839;28;20031;-56
2022/11/07 18:43:20;;;;;;;55.35;40.33;;;;;;;12.34;85.06;98041.75;10370836;28;20041;-58
2022/11/07 18:48:20;;;;;;;62.13;40.63;;;;;;;12.36;85.07;98056.50;10367493;28;20044;-56
2022/11/07 18:53:19;;;;;;;71.47;47.00;;;;;;;12.21;85.73;98044.38;10370984;28;20075;-56
2022/11/07 18:58:19;;;;;;;71.47;47.95;;;;;;;12.06;85.97;98036.59;10371224;28;20029;-56
2022/11/07 19:03:18;;;;;;;83.18;55.42;;;;;;;12.02;86.36;98050.50;10369479;28;20071;-57
2022/11/07 19:08:17;;;;;;;82.22;53.42;;;;;;;11.84;87.31;98056.59;10369924;28;20080;-58
2022/11/07 19:13:16;;;;;;;80.50;52.47;;;;;;;11.77;87.40;98050.53;10370608;28;20037;-57
2022/11/07 19:18:15;;;;;;;81.90;55.72;;;;;;;11.76;87.58;98067.00;10366935;28;20025;-57
2022/11/07 19:23:14;;;;;;;107.57;74.30;;;;;;;11.64;88.47;98080.00;10370582;28;20370;-57
2022/11/07 19:28:14;;;;;;;91.30;66.30;;;;;;;11.44;90.00;98083.47;10370164;28;20064;-57
2022/11/07 19:33:14;;;;;;;99.15;63.22;;;;;;;11.46;90.42;98092.13;10369391;28;20068;-57
2022/11/07 19:38:13;;;;;;;81.00;53.47;;;;;;;11.31;91.15;98086.91;10370371;28;20076;-55
2022/11/07 19:43:12;;;;;;;71.25;43.75;;;;;;;11.25;91.30;98081.72;10369581;28;20096;-57
2022/11/07 19:48:12;;;;;;;69.30;45.70;;;;;;;11.19;91.21;98084.28;10366169;28;20106;-57
2022/11/07 19:53:11;;;;;;;69.93;46.70;;;;;;;11.21;91.46;98070.44;10371796;28;20072;-55
2022/11/07 19:58:10;;;;;;;83.70;50.30;;;;;;;11.30;91.40;98089.50;10377100;28;20476;-56
2022/11/07 20:03:09;;;;;;;75.13;48.95;;;;;;;11.28;91.14;98092.09;10376052;28;20502;-56
2022/11/07 20:08:08;;;;;;;72.03;45.00;;;;;;;11.27;91.00;98090.38;10377222;28;20033;-55
2022/11/07 20:13:07;;;;;;;67.30;41.33;;;;;;;11.16;91.36;98092.09;10377555;28;20111;-56
2022/11/07 20:18:06;;;;;;;68.25;40.05;;;;;;;11.18;91.05;98105.94;10375979;28;20029;-56
2022/11/07 20:23:05;;;;;;;65.88;39.38;;;;;;;11.19;90.51;98099.88;10374142;28;20073;-57
2022/11/07 20:28:04;;;;;;;56.80;37.28;;;;;;;11.19;90.34;98105.06;10374430;28;20048;-57
2022/11/07 20:33:03;;;;;;;55.67;36.45;;;;;;;11.17;90.20;98097.25;10375149;28;20499;-57
2022/11/07 20:38:04;;;;;;;63.90;41.70;;;;;;;11.15;90.50;98101.63;10375646;28;20107;-57
2022/11/07 20:43:07;;;;;;;80.78;48.60;;;;;;;10.94;90.89;98088.56;10371344;28;20073;-55
2022/11/07 20:48:06;;;;;;;69.68;45.70;;;;;;;10.80;92.40;98106.69;10369682;28;20559;-57
2022/11/07 20:53:05;;;;;;;66.50;43.13;;;;;;;10.69;92.69;98121.34;10374690;28;20064;-57
2022/11/07 20:58:04;;;;;;;67.95;43.40;;;;;;;10.72;92.76;98123.94;10374861;28;20425;-57
2022/11/07 21:03:03;;;;;;;70.55;43.45;;;;;;;10.72;93.41;98126.53;10374996;28;20615;-57
2022/11/07 21:08:02;;;;;;;72.00;46.58;;;;;;;10.76;93.30;98138.66;10374474;28;20041;-57
2022/11/07 21:13:01;;;;;;;67.97;43.53;;;;;;;10.82;93.00;98144.75;10375394;28;20068;-55
2022/11/07 21:18:02;;;;;;;69.65;44.30;;;;;;;10.84;92.56;98150.78;10376084;28;20487;-55
2022/11/07 21:23:01;;;;;;;89.28;51.05;;;;;;;10.93;93.00;98165.59;10375350;28;20063;-57
2022/11/07 21:28:00;;;;;;;80.47;51.38;;;;;;;10.88;93.32;98177.69;10375544;28;20051;-55
2022/11/07 21:32:59;;;;;;;86.57;51.08;;;;;;;10.90;93.15;98173.38;10375380;28;20028;-57
2022/11/07 21:37:58;;;;;;;77.28;49.63;;;;;;;10.95;92.62;98179.44;10374789;28;20048;-57
2022/11/07 21:42:57;;;;;;;74.22;48.60;;;;;;;10.96;92.87;98183.81;10374503;28;20435;-56
2022/11/07 21:47:56;;;;;;;72.55;46.75;;;;;;;10.97;92.91;98172.53;10374389;28;20025;-57
2022/11/07 21:52:55;;;;;;;67.05;43.33;;;;;;;10.99;92.94;98175.16;10374722;28;20108;-56
2022/11/07 21:57:54;;;;;;;73.15;45.50;;;;;;;11.01;92.93;98181.19;10374275;28;20032;-57
2022/11/07 22:02:53;;;;;;;64.47;43.17;;;;;;;11.00;92.47;98182.94;10372465;28;20075;-58
2022/11/07 22:07:52;;;;;;;80.30;51.42;;;;;;;10.91;92.90;98193.28;10374253;28;20025;-57
2022/11/07 22:12:51;;;;;;;84.97;54.80;;;;;;;10.88;93.17;98185.47;10373712;28;20036;-57
2022/11/07 22:17:50;;;;;;;81.47;54.83;;;;;;;10.72;93.46;98191.41;10372973;28;20064;-57
2022/11/07 22:22:49;;;;;;;;;;;;;;;10.64;94.38;98200.91;10373446;28;20072;-56
2022/11/07 22:27:48;;;;;;;74.75;47.40;;;;;;;10.61;94.93;98197.44;10373183;28;19948;-56
2022/11/07 22:32:50;;;;;;;76.38;48.53;;;;;;;10.65;94.48;98206.09;10373148;28;20104;-56
2022/11/07 22:37:49;;;;;;;71.47;45.47;;;;;;;10.72;93.85;98207.84;10373087;28;20071;-57
2022/11/07 22:42:48;;;;;;;70.30;45.08;;;;;;;10.74;94.20;98211.34;10372347;28;20045;-56
2022/11/07 22:47:47;;;;;;;;;;;;;;;10.74;94.19;98197.50;10372994;28;20064;-57
2022/11/07 22:52:46;;;;;;;65.15;44.60;;;;;;;10.76;94.59;98216.53;10372236;28;19944;-57
2022/11/07 22:57:45;;;;;;;72.07;45.60;;;;;;;10.79;94.41;98224.34;10372440;28;20500;-57
2022/11/07 23:02:44;;;;;;;66.30;44.42;;;;;;;10.86;94.08;98218.31;10372158;28;20531;-57
2022/11/07 23:07:43;;;;;;;70.35;43.03;;;;;;;10.91;94.65;98213.19;10371002;28;20061;-56